sensor_id;sensor_type;location;lat;lon;timestamp;pressure;altitude;pressure_sealevel;temperature;humidity
57248;BME280;55809;46.618;10.764;2023-01-08T00:01:12;93215.41;;;-0.74;71.76
57248;BME280;55809;46.618;10.764;2023-01-08T00:03:41;93205.94;;;-0.83;71.65
57248;BME280;55809;46.618;10.764;2023-01-08T00:06:11;93217.63;;;-0.84;71.71
57248;BME280;55809;46.618;10.764;2023-01-08T00:08:38;93189.22;;;-1.05;71.73
57248;BME280;55809;46.618;10.764;2023-01-08T00:11:05;93179.41;;;-1.04;71.80
57248;BME280;55809;46.618;10.764;2023-01-08T00:13:32;93213.25;;;-0.80;71.20
57248;BME280;55809;46.618;10.764;2023-01-08T00:16:02;93179.06;;;-1.03;71.57
57248;BME280;55809;46.618;10.764;2023-01-08T00:18:30;93169.56;;;-1.04;71.30
57248;BME280;55809;46.618;10.764;2023-01-08T00:20:58;93208.94;;;-0.93;72.46
57248;BME280;55809;46.618;10.764;2023-01-08T00:23:25;93214.75;;;-1.00;71.29
57248;BME280;55809;46.618;10.764;2023-01-08T00:25:52;93220.69;;;-1.12;72.47
57248;BME280;55809;46.618;10.764;2023-01-08T00:28:20;93219.94;;;-1.12;72.95
57248;BME280;55809;46.618;10.764;2023-01-08T00:30:47;93217.91;;;-1.15;72.66
57248;BME280;55809;46.618;10.764;2023-01-08T00:33:14;93189.34;;;-1.39;72.97
57248;BME280;55809;46.618;10.764;2023-01-08T00:35:41;93210.28;;;-1.17;73.21
57248;BME280;55809;46.618;10.764;2023-01-08T00:38:10;93204.19;;;-1.09;73.42
57248;BME280;55809;46.618;10.764;2023-01-08T00:40:37;93197.16;;;-1.05;72.71
57248;BME280;55809;46.618;10.764;2023-01-08T00:43:04;93184.50;;;-0.99;72.30
57248;BME280;55809;46.618;10.764;2023-01-08T00:45:32;93189.50;;;-0.98;72.56
57248;BME280;55809;46.618;10.764;2023-01-08T00:47:59;93174.63;;;-0.90;71.72
57248;BME280;55809;46.618;10.764;2023-01-08T00:50:26;93167.25;;;-0.76;71.42
57248;BME280;55809;46.618;10.764;2023-01-08T00:52:53;93171.53;;;-0.62;71.13
57248;BME280;55809;46.618;10.764;2023-01-08T00:55:22;93170.06;;;-0.81;72.19
57248;BME280;55809;46.618;10.764;2023-01-08T00:57:48;93172.75;;;-0.89;72.53
57248;BME280;55809;46.618;10.764;2023-01-08T01:00:16;93158.97;;;-1.04;72.55
57248;BME280;55809;46.618;10.764;2023-01-08T01:02:44;93172.84;;;-1.07;72.48
57248;BME280;55809;46.618;10.764;2023-01-08T01:05:12;93174.22;;;-1.01;73.79
57248;BME280;55809;46.618;10.764;2023-01-08T01:07:41;93179.81;;;-0.93;73.19
57248;BME280;55809;46.618;10.764;2023-01-08T01:10:09;93178.63;;;-0.75;72.88
57248;BME280;55809;46.618;10.764;2023-01-08T01:12:39;93173.75;;;-0.73;72.93
57248;BME280;55809;46.618;10.764;2023-01-08T01:15:08;93168.59;;;-0.69;72.43
57248;BME280;55809;46.618;10.764;2023-01-08T01:17:38;93174.09;;;-0.75;71.47
57248;BME280;55809;46.618;10.764;2023-01-08T01:20:06;93129.56;;;-1.11;71.91
57248;BME280;55809;46.618;10.764;2023-01-08T01:22:34;93187.38;;;-0.83;72.22
57248;BME280;55809;46.618;10.764;2023-01-08T01:25:01;93187.78;;;-0.73;72.90
57248;BME280;55809;46.618;10.764;2023-01-08T01:27:28;93184.06;;;-0.72;72.71
57248;BME280;55809;46.618;10.764;2023-01-08T01:29:57;93167.66;;;-0.95;73.04
57248;BME280;55809;46.618;10.764;2023-01-08T01:32:24;93194.97;;;-0.73;72.72
57248;BME280;55809;46.618;10.764;2023-01-08T01:34:51;93193.59;;;-0.79;72.53
57248;BME280;55809;46.618;10.764;2023-01-08T01:37:18;93189.88;;;-0.78;72.43
57248;BME280;55809;46.618;10.764;2023-01-08T01:39:45;93167.97;;;-0.96;72.58
57248;BME280;55809;46.618;10.764;2023-01-08T01:42:12;93193.09;;;-0.73;72.58
57248;BME280;55809;46.618;10.764;2023-01-08T01:45:03;93192.06;;;-0.59;73.00
57248;BME280;55809;46.618;10.764;2023-01-08T01:47:33;93186.22;;;-0.44;73.55
57248;BME280;55809;46.618;10.764;2023-01-08T01:50:04;93168.56;;;-0.61;73.28
57248;BME280;55809;46.618;10.764;2023-01-08T01:52:36;93146.31;;;-0.68;73.02
57248;BME280;55809;46.618;10.764;2023-01-08T01:55:03;93184.66;;;-0.45;72.53
57248;BME280;55809;46.618;10.764;2023-01-08T01:57:32;93179.38;;;-0.45;72.98
57248;BME280;55809;46.618;10.764;2023-01-08T02:00:03;93171.03;;;-0.35;72.39
57248;BME280;55809;46.618;10.764;2023-01-08T02:02:30;93149.69;;;-0.38;71.47
57248;BME280;55809;46.618;10.764;2023-01-08T02:04:58;93171.28;;;-0.28;70.83
57248;BME280;55809;46.618;10.764;2023-01-08T02:07:30;93159.31;;;-0.34;71.17
57248;BME280;55809;46.618;10.764;2023-01-08T02:10:05;93168.22;;;-0.17;70.76
57248;BME280;55809;46.618;10.764;2023-01-08T02:12:38;93167.78;;;-0.19;71.11
57248;BME280;55809;46.618;10.764;2023-01-08T02:15:13;93162.66;;;-0.25;70.51
57248;BME280;55809;46.618;10.764;2023-01-08T02:17:47;93124.47;;;-0.65;70.86
57248;BME280;55809;46.618;10.764;2023-01-08T02:20:18;93161.41;;;-0.39;71.15
57248;BME280;55809;46.618;10.764;2023-01-08T02:23:13;93127.97;;;-0.53;71.21
57248;BME280;55809;46.618;10.764;2023-01-08T02:26:05;93153.34;;;-0.31;70.65
57248;BME280;55809;46.618;10.764;2023-01-08T02:28:37;93150.69;;;-0.31;70.68
57248;BME280;55809;46.618;10.764;2023-01-08T02:31:06;93147.66;;;-0.20;69.97
57248;BME280;55809;46.618;10.764;2023-01-08T02:33:33;93147.34;;;-0.19;69.86
57248;BME280;55809;46.618;10.764;2023-01-08T02:39:25;93136.63;;;-0.10;71.14
57248;BME280;55809;46.618;10.764;2023-01-08T02:42:13;93131.78;;;-0.08;71.10
57248;BME280;55809;46.618;10.764;2023-01-08T02:44:54;93133.16;;;-0.02;71.40
57248;BME280;55809;46.618;10.764;2023-01-08T02:47:29;93123.75;;;0.01;70.75
57248;BME280;55809;46.618;10.764;2023-01-08T02:50:10;93130.94;;;0.00;70.87
57248;BME280;55809;46.618;10.764;2023-01-08T02:52:47;93123.00;;;0.00;70.59
57248;BME280;55809;46.618;10.764;2023-01-08T02:55:16;93109.75;;;0.12;69.28
57248;BME280;55809;46.618;10.764;2023-01-08T02:57:46;93099.47;;;0.11;69.54
57248;BME280;55809;46.618;10.764;2023-01-08T03:00:14;93109.84;;;0.16;69.19
57248;BME280;55809;46.618;10.764;2023-01-08T03:02:41;93101.13;;;0.15;69.47
57248;BME280;55809;46.618;10.764;2023-01-08T03:05:15;93102.00;;;0.19;69.52
57248;BME280;55809;46.618;10.764;2023-01-08T03:07:46;93099.47;;;0.11;69.87
57248;BME280;55809;46.618;10.764;2023-01-08T03:10:14;93101.13;;;0.15;69.97
57248;BME280;55809;46.618;10.764;2023-01-08T03:12:58;93105.66;;;0.15;69.55
57248;BME280;55809;46.618;10.764;2023-01-08T03:15:31;93058.91;;;-0.23;69.23
57248;BME280;55809;46.618;10.764;2023-01-08T03:18:03;93091.28;;;0.04;69.72
57248;BME280;55809;46.618;10.764;2023-01-08T03:20:35;93067.22;;;-0.12;69.51
57248;BME280;55809;46.618;10.764;2023-01-08T03:23:06;93087.16;;;0.06;70.10
57248;BME280;55809;46.618;10.764;2023-01-08T03:25:36;93080.88;;;0.11;69.98
57248;BME280;55809;46.618;10.764;2023-01-08T03:28:12;93065.81;;;0.03;70.56
57248;BME280;55809;46.618;10.764;2023-01-08T03:30:41;93071.78;;;-0.01;69.86
57248;BME280;55809;46.618;10.764;2023-01-08T03:33:10;93061.81;;;-0.04;70.01
57248;BME280;55809;46.618;10.764;2023-01-08T03:35:41;93058.41;;;-0.04;69.79
57248;BME280;55809;46.618;10.764;2023-01-08T03:38:13;93059.50;;;-0.05;69.96
57248;BME280;55809;46.618;10.764;2023-01-08T03:40:46;93013.69;;;-0.27;68.79
57248;BME280;55809;46.618;10.764;2023-01-08T03:43:16;93055.53;;;0.01;69.62
57248;BME280;55809;46.618;10.764;2023-01-08T03:45:47;93049.47;;;0.01;70.60
57248;BME280;55809;46.618;10.764;2023-01-08T03:48:17;93013.28;;;-0.16;70.90
57248;BME280;55809;46.618;10.764;2023-01-08T03:50:45;93046.16;;;0.04;70.99
57248;BME280;55809;46.618;10.764;2023-01-08T03:53:12;93035.44;;;0.12;70.95
57248;BME280;55809;46.618;10.764;2023-01-08T03:55:39;93035.53;;;0.16;69.04
57248;BME280;55809;46.618;10.764;2023-01-08T03:58:06;93037.00;;;0.13;68.84
57248;BME280;55809;46.618;10.764;2023-01-08T04:00:35;93030.13;;;0.12;69.48
57248;BME280;55809;46.618;10.764;2023-01-08T04:03:02;93027.69;;;0.19;68.90
57248;BME280;55809;46.618;10.764;2023-01-08T04:05:29;92994.19;;;0.03;68.29
57248;BME280;55809;46.618;10.764;2023-01-08T04:07:56;93037.22;;;0.20;68.03
57248;BME280;55809;46.618;10.764;2023-01-08T04:10:24;93016.06;;;-0.01;68.47
57248;BME280;55809;46.618;10.764;2023-01-08T04:12:51;93036.56;;;0.23;67.71
57248;BME280;55809;46.618;10.764;2023-01-08T04:15:18;93040.19;;;0.19;68.33
57248;BME280;55809;46.618;10.764;2023-01-08T04:17:47;93014.97;;;0.01;68.22
57248;BME280;55809;46.618;10.764;2023-01-08T04:20:14;93046.63;;;0.18;69.41
57248;BME280;55809;46.618;10.764;2023-01-08T04:22:41;93041.41;;;0.21;69.33
57248;BME280;55809;46.618;10.764;2023-01-08T04:25:08;93043.41;;;0.25;68.23
57248;BME280;55809;46.618;10.764;2023-01-08T04:27:36;93046.06;;;0.25;69.56
57248;BME280;55809;46.618;10.764;2023-01-08T04:30:03;93048.53;;;0.30;69.75
57248;BME280;55809;46.618;10.764;2023-01-08T04:32:32;93052.72;;;0.31;69.51
57248;BME280;55809;46.618;10.764;2023-01-08T04:35:01;93050.06;;;0.31;69.40
57248;BME280;55809;46.618;10.764;2023-01-08T04:37:28;93054.38;;;0.35;69.29
57248;BME280;55809;46.618;10.764;2023-01-08T04:39:55;93049.81;;;0.36;68.73
57248;BME280;55809;46.618;10.764;2023-01-08T04:42:21;93020.94;;;0.22;68.66
57248;BME280;55809;46.618;10.764;2023-01-08T04:44:48;93044.63;;;0.39;69.36
57248;BME280;55809;46.618;10.764;2023-01-08T04:47:15;92982.56;;;-0.05;69.23
57248;BME280;55809;46.618;10.764;2023-01-08T04:49:42;93044.28;;;0.29;69.24
57248;BME280;55809;46.618;10.764;2023-01-08T04:52:11;93044.97;;;0.26;69.03
57248;BME280;55809;46.618;10.764;2023-01-08T04:54:38;93037.22;;;0.20;68.97
57248;BME280;55809;46.618;10.764;2023-01-08T04:57:05;93024.72;;;0.21;69.22
57248;BME280;55809;46.618;10.764;2023-01-08T04:59:33;93013.22;;;0.17;68.88
57248;BME280;55809;46.618;10.764;2023-01-08T05:02:00;93013.88;;;0.14;69.26
57248;BME280;55809;46.618;10.764;2023-01-08T05:04:27;93005.38;;;0.20;70.31
57248;BME280;55809;46.618;10.764;2023-01-08T05:06:54;93006.72;;;0.27;69.98
57248;BME280;55809;46.618;10.764;2023-01-08T05:09:23;93002.84;;;0.24;69.39
57248;BME280;55809;46.618;10.764;2023-01-08T05:11:50;93006.16;;;0.21;69.86
57248;BME280;55809;46.618;10.764;2023-01-08T05:14:16;92995.94;;;0.23;70.27
57248;BME280;55809;46.618;10.764;2023-01-08T05:16:43;92989.97;;;0.26;70.06
57248;BME280;55809;46.618;10.764;2023-01-08T05:19:10;92982.38;;;0.37;68.46
57248;BME280;55809;46.618;10.764;2023-01-08T05:21:37;92983.25;;;0.41;69.30
57248;BME280;55809;46.618;10.764;2023-01-08T05:24:05;92979.06;;;0.40;69.23
57248;BME280;55809;46.618;10.764;2023-01-08T05:26:35;92977.16;;;0.40;69.88
57248;BME280;55809;46.618;10.764;2023-01-08T05:29:02;92971.59;;;0.58;69.19
57248;BME280;55809;46.618;10.764;2023-01-08T05:31:29;92960.56;;;0.43;68.86
57248;BME280;55809;46.618;10.764;2023-01-08T05:33:56;92949.41;;;0.38;68.42
57248;BME280;55809;46.618;10.764;2023-01-08T05:36:25;92945.72;;;0.55;69.36
57248;BME280;55809;46.618;10.764;2023-01-08T05:38:52;92938.09;;;0.53;69.10
57248;BME280;55809;46.618;10.764;2023-01-08T05:41:19;92943.19;;;0.46;69.24
57248;BME280;55809;46.618;10.764;2023-01-08T05:43:47;92945.31;;;0.40;69.74
57248;BME280;55809;46.618;10.764;2023-01-08T05:46:14;92942.19;;;0.38;69.68
57248;BME280;55809;46.618;10.764;2023-01-08T05:48:42;92943.66;;;0.23;69.01
57248;BME280;55809;46.618;10.764;2023-01-08T05:51:09;92944.66;;;0.19;69.12
57248;BME280;55809;46.618;10.764;2023-01-08T05:53:36;92963.44;;;0.26;69.25
57248;BME280;55809;46.618;10.764;2023-01-08T05:56:04;92975.72;;;0.31;69.49
57248;BME280;55809;46.618;10.764;2023-01-08T05:58:32;92940.47;;;0.30;69.31
57248;BME280;55809;46.618;10.764;2023-01-08T06:01:04;92958.03;;;0.35;68.32
57248;BME280;55809;46.618;10.764;2023-01-08T06:03:32;92979.47;;;0.54;67.66
57248;BME280;55809;46.618;10.764;2023-01-08T06:06:00;92970.63;;;0.50;67.81
57248;BME280;55809;46.618;10.764;2023-01-08T06:08:28;92981.16;;;0.46;68.07
57248;BME280;55809;46.618;10.764;2023-01-08T06:10:58;92931.41;;;0.07;67.83
57248;BME280;55809;46.618;10.764;2023-01-08T06:13:25;92930.19;;;0.04;68.59
57248;BME280;55809;46.618;10.764;2023-01-08T06:15:52;92960.78;;;0.26;69.32
57248;BME280;55809;46.618;10.764;2023-01-08T06:18:21;92963.13;;;0.28;68.99
57248;BME280;55809;46.618;10.764;2023-01-08T06:20:48;92939.13;;;-0.01;68.78
57248;BME280;55809;46.618;10.764;2023-01-08T06:23:15;92949.31;;;-0.03;69.65
57248;BME280;55809;46.618;10.764;2023-01-08T06:25:41;92978.63;;;0.13;69.62
57248;BME280;55809;46.618;10.764;2023-01-08T06:28:08;92972.88;;;0.23;70.33
57248;BME280;55809;46.618;10.764;2023-01-08T06:30:36;92973.63;;;0.36;69.94
57248;BME280;55809;46.618;10.764;2023-01-08T06:33:03;92934.59;;;0.12;69.96
57248;BME280;55809;46.618;10.764;2023-01-08T06:35:31;92959.81;;;0.31;69.68
57248;BME280;55809;46.618;10.764;2023-01-08T06:37:58;92954.38;;;0.27;68.87
57248;BME280;55809;46.618;10.764;2023-01-08T06:40:25;92949.63;;;0.20;68.69
57248;BME280;55809;46.618;10.764;2023-01-08T06:42:53;92899.91;;;-0.19;68.83
57248;BME280;55809;46.618;10.764;2023-01-08T06:45:20;92940.69;;;0.01;69.46
57248;BME280;55809;46.618;10.764;2023-01-08T06:47:47;92942.78;;;-0.05;69.65
57248;BME280;55809;46.618;10.764;2023-01-08T06:50:14;92946.19;;;-0.05;69.26
57248;BME280;55809;46.618;10.764;2023-01-08T06:52:42;92937.38;;;0.04;69.15
57248;BME280;55809;46.618;10.764;2023-01-08T06:55:09;92941.31;;;0.10;68.76
57248;BME280;55809;46.618;10.764;2023-01-08T06:57:36;92931.72;;;0.17;69.57
57248;BME280;55809;46.618;10.764;2023-01-08T07:00:07;92926.84;;;0.32;69.90
57248;BME280;55809;46.618;10.764;2023-01-08T07:02:34;92918.56;;;0.21;69.88
57248;BME280;55809;46.618;10.764;2023-01-08T07:05:01;92919.22;;;0.18;70.38
57248;BME280;55809;46.618;10.764;2023-01-08T07:07:28;92934.28;;;0.14;70.59
57248;BME280;55809;46.618;10.764;2023-01-08T07:09:57;92938.91;;;0.17;70.01
57248;BME280;55809;46.618;10.764;2023-01-08T07:12:24;92944.88;;;0.14;70.39
57248;BME280;55809;46.618;10.764;2023-01-08T07:14:51;92942.75;;;0.19;70.27
57248;BME280;55809;46.618;10.764;2023-01-08T07:17:18;92939.69;;;0.30;69.10
57248;BME280;55809;46.618;10.764;2023-01-08T07:19:45;92928.06;;;0.22;69.42
57248;BME280;55809;46.618;10.764;2023-01-08T07:22:12;92885.63;;;-0.03;68.53
57248;BME280;55809;46.618;10.764;2023-01-08T07:24:38;92919.69;;;0.20;68.31
57248;BME280;55809;46.618;10.764;2023-01-08T07:27:07;92944.84;;;0.38;68.74
57248;BME280;55809;46.618;10.764;2023-01-08T07:29:34;92944.09;;;0.38;67.64
57248;BME280;55809;46.618;10.764;2023-01-08T07:32:01;92944.19;;;0.29;67.74
57248;BME280;55809;46.618;10.764;2023-01-08T07:34:28;92963.69;;;0.33;67.97
57248;BME280;55809;46.618;10.764;2023-01-08T07:36:55;92949.97;;;0.31;69.02
57248;BME280;55809;46.618;10.764;2023-01-08T07:39:22;92950.50;;;0.37;69.47
57248;BME280;55809;46.618;10.764;2023-01-08T07:41:49;92947.19;;;0.40;68.95
57248;BME280;55809;46.618;10.764;2023-01-08T07:44:18;92941.53;;;0.41;69.37
57248;BME280;55809;46.618;10.764;2023-01-08T07:46:45;92949.75;;;0.36;70.00
57248;BME280;55809;46.618;10.764;2023-01-08T07:49:13;92953.72;;;0.30;70.19
57248;BME280;55809;46.618;10.764;2023-01-08T07:51:40;92950.97;;;0.27;70.55
57248;BME280;55809;46.618;10.764;2023-01-08T07:54:07;92943.22;;;0.21;69.86
57248;BME280;55809;46.618;10.764;2023-01-08T07:56:34;92952.41;;;0.24;70.40
57248;BME280;55809;46.618;10.764;2023-01-08T07:59:01;92943.00;;;0.27;70.65
57248;BME280;55809;46.618;10.764;2023-01-08T08:01:31;92950.72;;;0.32;70.15
57248;BME280;55809;46.618;10.764;2023-01-08T08:03:58;92900.44;;;0.11;69.21
57248;BME280;55809;46.618;10.764;2023-01-08T08:06:25;92937.09;;;0.45;69.56
57248;BME280;55809;46.618;10.764;2023-01-08T08:08:52;92927.81;;;0.52;69.96
57248;BME280;55809;46.618;10.764;2023-01-08T08:11:21;92931.00;;;0.57;70.19
57248;BME280;55809;46.618;10.764;2023-01-08T08:13:48;92932.44;;;0.55;69.61
57248;BME280;55809;46.618;10.764;2023-01-08T08:16:15;92918.03;;;0.56;69.64
57248;BME280;55809;46.618;10.764;2023-01-08T08:18:44;92919.94;;;0.55;69.68
57248;BME280;55809;46.618;10.764;2023-01-08T08:21:10;92921.81;;;0.55;69.65
57248;BME280;55809;46.618;10.764;2023-01-08T08:23:37;92920.03;;;0.59;69.96
57248;BME280;55809;46.618;10.764;2023-01-08T08:26:04;92911.84;;;0.64;69.43
57248;BME280;55809;46.618;10.764;2023-01-08T08:28:32;92917.16;;;0.64;68.56
57248;BME280;55809;46.618;10.764;2023-01-08T08:30:59;92915.16;;;0.73;68.59
57248;BME280;55809;46.618;10.764;2023-01-08T08:33:26;92908.59;;;0.83;69.19
57248;BME280;55809;46.618;10.764;2023-01-08T08:35:55;92911.56;;;0.81;68.99
57248;BME280;55809;46.618;10.764;2023-01-08T08:38:22;92918.09;;;0.84;69.02
57248;BME280;55809;46.618;10.764;2023-01-08T08:40:49;92888.13;;;0.71;69.03
57248;BME280;55809;46.618;10.764;2023-01-08T08:43:16;92902.59;;;0.86;68.87
57248;BME280;55809;46.618;10.764;2023-01-08T08:45:43;92913.63;;;1.00;67.92
57248;BME280;55809;46.618;10.764;2023-01-08T08:48:10;92905.72;;;1.04;67.75
57248;BME280;55809;46.618;10.764;2023-01-08T08:50:38;92898.22;;;1.06;67.36
57248;BME280;55809;46.618;10.764;2023-01-08T08:53:07;92899.50;;;1.12;66.17
57248;BME280;55809;46.618;10.764;2023-01-08T08:55:35;92910.91;;;1.12;66.89
57248;BME280;55809;46.618;10.764;2023-01-08T08:58:05;92921.47;;;1.25;67.29
57248;BME280;55809;46.618;10.764;2023-01-08T09:00:32;92906.91;;;1.34;65.88
57248;BME280;55809;46.618;10.764;2023-01-08T09:02:59;92906.66;;;1.39;66.00
57248;BME280;55809;46.618;10.764;2023-01-08T09:05:26;92893.63;;;1.34;65.76
57248;BME280;55809;46.618;10.764;2023-01-08T09:07:54;92910.81;;;1.69;66.15
57248;BME280;55809;46.618;10.764;2023-01-08T09:10:23;92903.53;;;1.66;66.12
57248;BME280;55809;46.618;10.764;2023-01-08T09:12:51;92907.22;;;1.93;64.52
57248;BME280;55809;46.618;10.764;2023-01-08T09:15:19;92905.41;;;1.97;63.58
57248;BME280;55809;46.618;10.764;2023-01-08T09:17:51;92902.13;;;2.03;63.40
57248;BME280;55809;46.618;10.764;2023-01-08T09:20:18;92897.78;;;2.11;63.66
57248;BME280;55809;46.618;10.764;2023-01-08T09:22:45;92898.78;;;2.06;64.91
57248;BME280;55809;46.618;10.764;2023-01-08T09:25:12;92888.91;;;2.07;64.58
57248;BME280;55809;46.618;10.764;2023-01-08T09:27:41;92888.06;;;2.03;64.76
57248;BME280;55809;46.618;10.764;2023-01-08T09:30:09;92871.78;;;1.88;64.70
57248;BME280;55809;46.618;10.764;2023-01-08T09:32:36;92880.69;;;1.96;65.54
57248;BME280;55809;46.618;10.764;2023-01-08T09:35:03;92871.84;;;1.92;65.52
57248;BME280;55809;46.618;10.764;2023-01-08T09:37:31;92824.81;;;1.80;64.38
57248;BME280;55809;46.618;10.764;2023-01-08T09:39:58;92865.03;;;2.10;64.96
57248;BME280;55809;46.618;10.764;2023-01-08T09:42:26;92862.97;;;2.04;65.10
57248;BME280;55809;46.618;10.764;2023-01-08T09:44:56;92867.34;;;2.12;64.66
57248;BME280;55809;46.618;10.764;2023-01-08T09:47:28;92868.44;;;2.27;65.27
57248;BME280;55809;46.618;10.764;2023-01-08T09:49:59;92862.16;;;2.35;64.68
57248;BME280;55809;46.618;10.764;2023-01-08T09:52:27;92842.84;;;2.22;64.72
57248;BME280;55809;46.618;10.764;2023-01-08T09:54:55;92870.75;;;2.28;64.61
57248;BME280;55809;46.618;10.764;2023-01-08T09:57:22;92863.97;;;2.31;65.21
57248;BME280;55809;46.618;10.764;2023-01-08T09:59:50;92860.53;;;2.30;64.25
57248;BME280;55809;46.618;10.764;2023-01-08T10:02:20;92855.38;;;2.38;64.20
57248;BME280;55809;46.618;10.764;2023-01-08T10:04:47;92860.34;;;2.58;64.45
57248;BME280;55809;46.618;10.764;2023-01-08T10:07:19;92858.41;;;2.75;63.25
57248;BME280;55809;46.618;10.764;2023-01-08T10:09:47;92872.22;;;2.80;62.82
57248;BME280;55809;46.618;10.764;2023-01-08T10:12:24;92859.31;;;2.82;62.54
57248;BME280;55809;46.618;10.764;2023-01-08T10:14:53;92849.72;;;2.78;62.86
57248;BME280;55809;46.618;10.764;2023-01-08T10:17:26;92791.78;;;2.36;63.36
57248;BME280;55809;46.618;10.764;2023-01-08T10:19:55;92834.50;;;2.78;63.59
57248;BME280;55809;46.618;10.764;2023-01-08T10:22:23;92835.38;;;2.86;62.88
57248;BME280;55809;46.618;10.764;2023-01-08T10:24:51;92833.66;;;2.94;61.63
57248;BME280;55809;46.618;10.764;2023-01-08T10:27:20;92800.34;;;2.84;62.72
57248;BME280;55809;46.618;10.764;2023-01-08T10:29:49;92813.91;;;2.98;62.89
57248;BME280;55809;46.618;10.764;2023-01-08T10:32:17;92796.72;;;2.96;63.05
57248;BME280;55809;46.618;10.764;2023-01-08T10:34:49;92795.56;;;2.93;62.50
57248;BME280;55809;46.618;10.764;2023-01-08T10:37:22;92791.00;;;2.94;63.05
57248;BME280;55809;46.618;10.764;2023-01-08T10:39:51;92794.56;;;3.01;62.66
57248;BME280;55809;46.618;10.764;2023-01-08T10:42:20;92757.03;;;2.91;63.04
57248;BME280;55809;46.618;10.764;2023-01-08T10:44:52;92776.13;;;3.16;62.78
57248;BME280;55809;46.618;10.764;2023-01-08T10:47:21;92791.13;;;3.47;61.68
57248;BME280;55809;46.618;10.764;2023-01-08T10:49:50;92782.19;;;3.59;61.58
57248;BME280;55809;46.618;10.764;2023-01-08T10:52:26;92777.81;;;3.73;61.11
57248;BME280;55809;46.618;10.764;2023-01-08T10:54:53;92764.19;;;3.79;60.59
57248;BME280;55809;46.618;10.764;2023-01-08T10:57:23;92713.09;;;3.53;61.48
57248;BME280;55809;46.618;10.764;2023-01-08T10:59:51;92744.38;;;3.80;60.52
57248;BME280;55809;46.618;10.764;2023-01-08T11:02:24;92726.81;;;3.79;59.74
57248;BME280;55809;46.618;10.764;2023-01-08T11:04:56;92725.72;;;3.83;59.79
57248;BME280;55809;46.618;10.764;2023-01-08T11:07:24;92724.19;;;3.82;60.26
57248;BME280;55809;46.618;10.764;2023-01-08T11:09:52;92718.06;;;3.82;60.35
57248;BME280;55809;46.618;10.764;2023-01-08T11:12:30;92720.09;;;3.88;59.82
57248;BME280;55809;46.618;10.764;2023-01-08T11:14:59;92712.50;;;3.94;59.83
57248;BME280;55809;46.618;10.764;2023-01-08T11:17:26;92712.66;;;3.78;60.48
57248;BME280;55809;46.618;10.764;2023-01-08T11:19:53;92711.38;;;3.68;61.03
57248;BME280;55809;46.618;10.764;2023-01-08T11:22:24;92709.97;;;3.74;61.78
57248;BME280;55809;46.618;10.764;2023-01-08T11:24:52;92698.41;;;3.67;60.78
57248;BME280;55809;46.618;10.764;2023-01-08T11:27:24;92687.59;;;3.56;61.62
57248;BME280;55809;46.618;10.764;2023-01-08T11:29:58;92687.56;;;3.52;60.68
57248;BME280;55809;46.618;10.764;2023-01-08T11:32:46;92689.38;;;3.48;61.25
57248;BME280;55809;46.618;10.764;2023-01-08T11:35:17;92687.56;;;3.52;61.58
57248;BME280;55809;46.618;10.764;2023-01-08T11:37:50;92686.88;;;3.59;62.19
57248;BME280;55809;46.618;10.764;2023-01-08T11:40:26;92685.38;;;3.62;62.33
57248;BME280;55809;46.618;10.764;2023-01-08T11:43:09;92694.53;;;3.61;62.35
57248;BME280;55809;46.618;10.764;2023-01-08T11:45:50;92666.84;;;3.42;60.81
57248;BME280;55809;46.618;10.764;2023-01-08T11:48:36;92676.16;;;3.56;61.58
57248;BME280;55809;46.618;10.764;2023-01-08T11:51:34;92666.03;;;3.68;61.63
57248;BME280;55809;46.618;10.764;2023-01-08T11:54:10;92659.31;;;3.51;60.91
57248;BME280;55809;46.618;10.764;2023-01-08T11:56:58;92638.69;;;3.22;60.87
57248;BME280;55809;46.618;10.764;2023-01-08T11:59:35;92645.13;;;3.17;61.06
57248;BME280;55809;46.618;10.764;2023-01-08T12:02:18;92643.22;;;3.18;60.50
57248;BME280;55809;46.618;10.764;2023-01-08T12:04:59;92641.25;;;3.15;60.61
57248;BME280;55809;46.618;10.764;2023-01-08T12:07:37;92642.56;;;3.24;60.17
57248;BME280;55809;46.618;10.764;2023-01-08T12:10:14;92648.31;;;3.26;59.36
57248;BME280;55809;46.618;10.764;2023-01-08T12:12:56;92636.88;;;3.26;58.79
57248;BME280;55809;46.618;10.764;2023-01-08T12:15:46;92639.97;;;3.32;60.55
57248;BME280;55809;46.618;10.764;2023-01-08T12:18:37;92623.31;;;3.38;59.79
57248;BME280;55809;46.618;10.764;2023-01-08T12:21:13;92626.59;;;3.28;59.87
57248;BME280;55809;46.618;10.764;2023-01-08T12:23:57;92626.13;;;3.22;61.02
57248;BME280;55809;46.618;10.764;2023-01-08T12:26:36;92621.03;;;3.10;62.11
57248;BME280;55809;46.618;10.764;2023-01-08T12:29:21;92625.63;;;3.13;62.00
57248;BME280;55809;46.618;10.764;2023-01-08T12:34:53;92629.69;;;3.30;62.26
57248;BME280;55809;46.618;10.764;2023-01-08T12:37:25;92636.06;;;3.25;62.47
57248;BME280;55809;46.618;10.764;2023-01-08T12:39:57;92642.88;;;3.19;62.79
57248;BME280;55809;46.618;10.764;2023-01-08T12:42:37;92640.19;;;3.19;62.28
57248;BME280;55809;46.618;10.764;2023-01-08T12:45:15;92642.34;;;3.10;61.68
57248;BME280;55809;46.618;10.764;2023-01-08T12:47:47;92626.25;;;3.03;62.74
57248;BME280;55809;46.618;10.764;2023-01-08T12:50:24;92628.50;;;3.01;62.40
57248;BME280;55809;46.618;10.764;2023-01-08T12:52:57;92631.81;;;2.94;63.22
57248;BME280;55809;46.618;10.764;2023-01-08T12:55:36;92620.34;;;2.90;63.80
57248;BME280;55809;46.618;10.764;2023-01-08T12:58:16;92615.06;;;2.94;64.36
57248;BME280;55809;46.618;10.764;2023-01-08T13:00:53;92622.38;;;3.00;63.92
57248;BME280;55809;46.618;10.764;2023-01-08T13:03:24;92624.69;;;3.02;62.79
57248;BME280;55809;46.618;10.764;2023-01-08T13:05:51;92630.34;;;2.97;63.46
57248;BME280;55809;46.618;10.764;2023-01-08T13:08:28;92627.19;;;2.91;62.72
57248;BME280;55809;46.618;10.764;2023-01-08T13:10:57;92629.09;;;2.91;63.81
57248;BME280;55809;46.618;10.764;2023-01-08T13:13:28;92597.28;;;2.78;63.81
57248;BME280;55809;46.618;10.764;2023-01-08T13:16:18;92608.63;;;2.98;64.15
57248;BME280;55809;46.618;10.764;2023-01-08T13:18:56;92565.78;;;2.84;63.79